Latest Weather Observations for Urandangi

IDQ60801

Issued at 11:02 am EST Sunday 19 April 2015 (issued every 30 minutes, with the page automatically refreshed every 10 minutes)

About weather observations | Map of weather stations | Latest weather observations for QLD | Other Formats
Station Details ID: 037058 Name: URANDANGI AERODROME Lat: -21.60 Lon: 138.37 Height: 178.6 m
Data from the previous 72 hours. | See also: Recent months at Urandangi
Date/Time
EST
Temp
°C
App
Temp
°C
Dew
Point
Rel
Hum
%
Delta-T
°C
Wind Press
QNH
hPa
Press
MSL
hPa
Rain
since 9 am
mm
Dir
 
Spd
km/h
Gust
km/h
Spd
kts
Gust
kts
19/11:00am 18.6 15.5 14.5 77 2.4 SSE 24 33 13 18 1022.5 1021.7 0.4
19/10:30am 18.0 16.3 14.7 81 1.9 SE 17 26 9 14 1022.4 1021.6 0.4
19/10:00am 17.5 15.4 15.1 86 1.4 SSE 20 26 11 14 1022.5 1021.7 0.4
19/09:30am 17.9 15.7 15.0 83 1.7 S 20 26 11 14 1022.6 1021.8 0.0
19/09:00am 18.6 16.0 14.9 79 2.2 SSE 22 30 12 16 1021.6 1020.8 0.8
19/08:30am 18.6 16.5 15.1 80 2.1 SSE 20 32 11 17 1021.7 1020.9 0.8
19/08:00am 18.6 16.5 15.1 80 2.1 SSE 20 28 11 15 1021.0 1020.1 0.8
19/07:30am 18.5 15.9 14.8 79 2.2 SE 22 33 12 18 1020.2 1019.3 0.8
19/07:00am 18.7 15.6 14.6 77 2.4 SSE 24 33 13 18 1019.9 1019.0 0.8
19/06:30am 18.7 16.4 14.6 77 2.4 SSE 20 28 11 15 1019.8 1018.9 0.8
19/06:00am 18.4 16.5 15.1 81 1.9 SSE 19 26 10 14 1020.1 1019.2 0.8
19/05:30am 18.1 16.3 15.5 85 1.5 S 19 33 10 18 1019.7 1018.8 0.8
19/05:00am 19.1 16.2 15.0 77 2.4 SSE 24 33 13 18 1019.1 1018.2 0.6
19/04:30am 19.4 17.5 15.1 76 2.5 S 19 26 10 14 1019.0 1018.1 0.6
19/04:00am 19.2 16.4 15.3 78 2.3 S 24 33 13 18 1018.6 1017.7 0.6
19/03:30am 19.2 16.5 15.7 80 2.1 S 24 35 13 19 1019.0 1018.1 0.6
19/03:00am 19.5 16.9 15.8 79 2.2 S 24 35 13 19 1019.2 1018.3 0.6
19/02:30am 19.9 17.9 15.5 76 2.6 S 20 28 11 15 1019.4 1018.5 0.4
19/02:00am 19.4 17.8 16.4 83 1.8 SSE 20 28 11 15 1019.3 1018.4 0.4
19/01:30am 19.8 17.6 17.0 84 1.7 S 24 35 13 19 1019.4 1018.5 0.4
19/01:00am 20.2 18.4 17.0 82 2.0 S 22 30 12 16 1019.9 1019.0 0.4
19/12:30am 20.3 19.2 17.7 85 1.6 S 20 30 11 16 1020.0 1019.1 0.4
19/12:00am 20.2 18.8 18.0 87 1.4 S 22 30 12 16 1020.1 1019.2 0.4
 
Date/Time
EST
Temp
°C
App
Temp
°C
Dew
Point
Rel
Hum
%
Delta-T
°C
Wind Press
QNH
hPa
Press
MSL
hPa
Rain
since 9 am
mm
Dir
 
Spd
km/h
Gust
km/h
Spd
kts
Gust
kts
18/11:30pm 20.3 19.6 18.6 90 1.1 S 20 28 11 15 1020.1 1019.2 0.4
18/11:00pm 20.4 19.3 18.7 90 1.1 SSE 22 28 12 15 1019.8 1018.9 0.4
18/10:30pm 20.5 19.1 18.8 90 1.1 SSE 24 33 13 18 1019.9 1019.0 0.2
18/10:00pm 21.6 20.0 18.4 82 2.0 S 24 33 13 18 1020.0 1019.1 0.0
18/09:30pm 21.6 21.0 18.4 82 2.0 SSE 19 28 10 15 1019.4 1018.5 0.0
18/09:00pm 21.8 21.2 18.8 83 1.9 SSE 20 30 11 16 1019.5 1018.6 0.0
18/08:30pm 22.1 21.6 19.1 83 1.9 SSE 20 26 11 14 1019.2 1018.3 0.0
18/08:00pm 22.3 21.7 18.9 81 2.2 SSE 20 28 11 15 1018.8 1017.9 0.0
18/07:30pm 22.1 21.1 18.9 82 2.0 SSE 22 32 12 17 1018.3 1017.4 0.0
18/07:00pm 22.6 20.0 17.9 75 2.9 S 28 35 15 19 1018.0 1017.1 0.0
18/06:30pm 22.9 20.9 18.4 76 2.8 S 26 33 14 18 1017.9 1017.0 0.0
18/06:00pm 23.6 20.4 17.3 67 3.9 S 30 41 16 22 1017.3 1016.5 0.0
18/05:30pm 24.6 21.0 17.1 63 4.7 S 32 41 17 22 1017.0 1016.2 0.0
18/05:00pm 25.3 21.9 16.7 59 5.3 S 30 39 16 21 1016.7 1015.9 0.0
18/04:30pm 26.4 22.9 16.6 55 6.1 S 30 41 16 22 1016.3 1015.5 0.0
18/04:00pm 26.4 22.6 16.6 55 6.1 S 32 43 17 23 1016.1 1015.3 0.0
18/03:30pm 26.8 23.6 16.4 53 6.5 S 28 39 15 21 1015.9 1015.0 0.0
18/03:00pm 27.4 23.9 16.4 51 6.8 S 30 41 16 22 1015.9 1015.0 0.0
18/02:30pm 28.2 25.8 16.5 49 7.3 S 24 35 13 19 1016.1 1015.3 0.0
18/02:00pm 27.9 24.8 16.5 50 7.1 S 28 41 15 22 1016.2 1015.4 0.0
18/01:30pm 27.9 24.7 16.2 49 7.3 S 28 39 15 21 1016.6 1015.8 0.0
18/01:00pm 29.6 26.8 16.4 45 8.3 S 26 43 14 23 1016.9 1016.1 0.0
18/12:30pm 29.9 27.3 16.0 43 8.7 S 24 43 13 23 1017.1 1016.3 0.0
18/12:00pm 29.5 26.8 15.6 43 8.6 S 24 37 13 20 1017.3 1016.5 0.0
18/11:30am 29.3 27.2 16.1 44 8.2 SE 22 32 12 17 1017.9 1017.0 0.0
18/11:00am 28.6 26.3 15.8 45 7.9 SSE 22 35 12 19 1018.0 1017.1 0.0
18/10:30am 27.6 25.1 16.2 49 7.1 SE 24 30 13 16 1018.3 1017.4 0.0
18/10:00am 26.3 23.7 16.0 53 6.3 SSE 24 35 13 19 1018.4 1017.5 0.0
18/09:30am 26.1 23.5 15.8 53 6.3 SSE 24 33 13 18 1018.3 1017.4 0.0
18/09:00am 25.5 23.1 16.4 57 5.6 SE 24 33 13 18 1018.1 1017.2 0.0
18/08:30am 24.8 22.7 16.2 58 5.3 SE 22 30 12 16 1017.7 1016.9 0.0
18/08:00am 23.5 21.9 16.1 63 4.5 SSE 19 28 10 15 1017.5 1016.7 0.0
18/07:30am 23.1 21.4 16.2 65 4.2 SE 20 26 11 14 1016.8 1016.0 0.0
18/07:00am 22.9 21.1 16.0 65 4.2 SSE 20 30 11 16 1016.4 1015.6 0.0
18/06:30am 22.9 21.3 16.0 65 4.2 SSE 19 26 10 14 1016.1 1015.3 0.0
18/06:00am 23.2 21.6 16.0 64 4.4 SSE 19 24 10 13 1015.8 1014.9 0.0
18/05:30am 23.5 21.0 16.1 63 4.5 SSE 24 32 13 17 1015.3 1014.4 0.0
18/05:00am 23.7 22.4 15.7 61 4.9 SSE 17 30 9 16 1015.3 1014.4 0.0
18/04:30am 23.9 21.2 15.7 60 5.0 SSE 24 32 13 17 1014.9 1014.0 0.0
18/04:00am 24.0 21.6 15.5 59 5.2 SSE 22 32 12 17 1014.7 1013.8 0.0
18/03:30am 24.2 22.4 15.4 58 5.3 S 19 24 10 13 1014.8 1013.9 0.0
18/03:00am 24.4 22.3 15.1 56 5.6 SSE 20 32 11 17 1014.9 1014.0 0.0
18/02:30am 24.7 22.8 15.1 55 5.8 SSE 19 28 10 15 1014.7 1013.8 0.0
18/02:00am 25.0 22.8 15.0 53 6.0 SSE 20 30 11 16 1014.9 1014.0 0.0
18/01:30am 25.3 22.4 15.0 53 6.2 SSE 24 32 13 17 1014.9 1014.0 0.0
18/01:00am 25.8 23.2 14.9 51 6.6 SSE 22 30 12 16 1015.2 1014.3 0.0
18/12:30am 26.0 23.3 14.5 49 6.9 SSE 22 28 12 15 1015.0 1014.1 0.0
18/12:00am 26.4 23.4 14.8 49 7.0 SSE 24 32 13 17 1015.0 1014.1 0.0
 
Date/Time
EST
Temp
°C
App
Temp
°C
Dew
Point
Rel
Hum
%
Delta-T
°C
Wind Press
QNH
hPa
Press
MSL
hPa
Rain
since 9 am
mm
Dir
 
Spd
km/h
Gust
km/h
Spd
kts
Gust
kts
17/11:30pm 26.8 23.7 14.5 46 7.4 SSE 24 35 13 19 1015.2 1014.3 0.0
17/11:00pm 27.3 24.1 14.3 45 7.8 SSE 24 35 13 19 1015.0 1014.1 0.0
17/10:30pm 27.8 23.8 14.1 43 8.3 SSE 28 35 15 19 1015.1 1014.2 0.0
17/10:00pm 28.3 24.3 14.2 42 8.5 S 28 39 15 21 1014.6 1013.7 0.0
17/09:30pm 29.1 25.6 14.5 41 8.9 S 26 35 14 19 1014.3 1013.4 0.0
17/09:00pm 30.2 25.2 13.5 36 10.1 S 32 43 17 23 1013.9 1013.0 0.0
17/08:46pm 30.6 26.4 13.4 35 10.4 S 28 52 15 28 1013.7 1012.8 0.0
17/08:30pm 31.2 26.1 13.0 33 10.9 SSW 32 44 17 24 1013.4 1012.5 0.0
17/08:28pm 31.3 26.2 13.1 33 10.9 SSW 32 44 17 24 1013.3 1012.4 0.0
17/08:00pm 33.0 30.3 10.4 25 13.1 SSW 15 24 8 13 1012.8 1011.9 0.0
17/07:30pm 33.6 31.1 10.9 25 13.3 SSW 15 22 8 12 1012.2 1011.3 0.0
17/07:00pm 33.9 32.2 9.9 23 13.9 SSW 9 13 5 7 1011.8 1011.0 0.0
17/06:30pm 34.5 32.8 8.3 20 14.8 SSW 7 11 4 6 1011.5 1010.7 0.0
17/06:00pm 36.1 34.3 8.0 18 16.0 SW 7 11 4 6 1011.2 1010.4 0.0
17/05:30pm 36.2 34.6 8.1 18 16.0 WNW 6 9 3 5 1011.1 1010.2 0.0
17/05:00pm 37.5 36.0 8.3 17 16.8 NW 6 9 3 5 1010.8 1009.9 0.0
17/04:30pm 37.0 35.2 7.9 17 16.6 NNW 7 13 4 7 1010.7 1009.8 0.0
17/04:00pm 37.3 35.2 8.2 17 16.7 WNW 9 15 5 8 1010.9 1010.0 0.0
17/03:30pm 36.9 34.9 8.7 18 16.2 W 9 17 5 9 1010.9 1010.0 0.0
17/03:00pm 37.2 36.2 8.9 18 16.4 SSE 4 9 2 5 1011.1 1010.2 0.0
17/02:30pm 36.9 35.9 8.7 18 16.2 WNW 4 13 2 7 1011.4 1010.6 0.0
17/02:00pm 36.8 34.0 8.6 18 16.2 NNE 13 20 7 11 1011.9 1011.1 0.0
17/01:30pm 37.1 36.1 8.8 18 16.3 ESE 4 9 2 5 1012.6 1011.7 0.0
17/01:00pm 35.7 33.9 9.3 20 15.3 NE 9 17 5 9 1013.0 1012.1 0.0
17/12:30pm 35.4 33.7 9.7 21 14.9 NNE 9 17 5 9 1013.7 1012.8 0.0
17/12:00pm 35.1 32.7 10.2 22 14.5 N 13 22 7 12 1014.2 1013.3 0.0
17/11:30am 35.6 33.3 10.6 22 14.7 NNE 13 20 7 11 1014.6 1013.7 0.0
17/11:00am 34.5 31.8 11.6 25 13.6 NNE 17 24 9 13 1015.2 1014.3 0.0
17/10:30am 33.7 30.6 11.5 26 13.2 NNE 19 28 10 15 1015.5 1014.6 0.0
17/10:00am 33.2 30.5 11.7 27 12.7 NNE 17 22 9 12 1015.9 1015.0 0.0
17/09:30am 31.5 29.4 11.3 29 11.8 NE 13 20 7 11 1015.9 1015.0 0.0
17/09:00am 29.1 28.6 9.3 29 11.1 NE 2 4 1 2 1016.0 1015.1 0.0
17/08:30am 25.9 25.3 8.8 34 9.4 SSW 2 4 1 2 1015.8 1014.9 0.0
17/08:00am 23.3 22.2 8.6 39 7.9 SW 4 6 2 3 1015.7 1014.8 0.0
17/07:30am 20.1 19.7 8.1 46 6.3 CALM 0 0 0 0 1015.2 1014.3 0.0
17/07:00am 19.6 19.1 7.7 46 6.1 CALM 0 0 0 0 1014.8 1013.9 0.0
17/06:30am 20.3 19.5 8.3 46 6.3 ENE 2 2 1 1 1014.4 1013.5 0.0
17/06:00am 20.2 18.3 6.9 42 6.8 ENE 6 6 3 3 1014.1 1013.2 0.0
17/05:30am 22.1 20.3 7.9 40 7.5 ENE 7 9 4 5 1013.7 1012.8 0.0
17/05:00am 22.7 20.8 9.1 42 7.3 NE 9 9 5 5 1013.6 1012.7 0.0
17/04:30am 23.2 21.3 8.9 40 7.7 NE 9 9 5 5 1013.5 1012.6 0.0
17/04:00am 24.0 22.5 9.2 39 8.1 NE 7 7 4 4 1013.7 1012.8 0.0
17/03:30am 25.2 23.4 9.5 37 8.7 NE 9 11 5 6 1013.8 1012.9 0.0
17/03:00am 26.1 23.9 9.5 35 9.2 NE 11 13 6 7 1014.0 1013.1 0.0
17/02:30am 27.4 24.5 9.7 33 9.9 NE 15 19 8 10 1014.1 1013.2 0.0
17/02:00am 27.4 24.5 9.7 33 9.9 NE 15 19 8 10 1014.6 1013.7 0.0
17/01:30am 27.3 24.9 10.1 34 9.7 NE 13 17 7 9 1015.0 1014.1 0.0
17/01:00am 27.3 24.9 10.1 34 9.7 NE 13 15 7 8 1015.5 1014.6 0.0
17/12:30am 26.3 24.2 9.6 35 9.3 NE 11 13 6 7 1015.9 1015.0 0.0
17/12:00am 26.7 24.4 9.1 33 9.7 ENE 11 13 6 7 1016.2 1015.4 0.0
 
Date/Time
EST
Temp
°C
App
Temp
°C
Dew
Point
Rel
Hum
%
Delta-T
°C
Wind Press
QNH
hPa
Press
MSL
hPa
Rain
since 9 am
mm
Dir
 
Spd
km/h
Gust
km/h
Spd
kts
Gust
kts
16/11:30pm 27.2 25.4 9.5 33 9.9 NE 9 11 5 6 1016.4 1015.6 0.0
16/11:00pm 27.6 25.8 9.4 32 10.1 NE 9 11 5 6 1016.6 1015.8 0.0
16/10:30pm 27.6 25.4 9.4 32 10.1 NE 11 11 6 6 1016.5 1015.7 0.0
16/10:00pm 28.6 26.5 9.8 31 10.6 NE 11 11 6 6 1016.4 1015.6 0.0
16/09:30pm 29.3 27.2 9.9 30 11.0 NE 11 13 6 7 1016.2 1015.4 0.0
16/09:00pm 29.6 27.6 10.2 30 11.1 ENE 11 11 6 6 1016.0 1015.1 0.0
16/08:30pm 30.2 28.6 10.2 29 11.4 ENE 9 11 5 6 1015.7 1014.8 0.0
16/08:00pm 31.2 29.3 10.5 28 11.9 NE 11 11 6 6 1015.2 1014.3 0.0
16/07:30pm 32.0 30.5 10.7 27 12.4 NE 9 9 5 5 1014.8 1013.9 0.0
16/07:00pm 33.3 32.0 11.2 26 13.0 ENE 9 13 5 7 1014.5 1013.6 0.0
16/06:30pm 34.7 33.6 11.8 25 13.7 NNE 9 13 5 7 1014.1 1013.2 0.0
16/06:00pm 35.8 34.4 10.8 22 14.8 NNE 9 19 5 10 1013.9 1013.0 0.0
16/05:30pm 36.2 34.9 11.1 22 14.9 N 9 17 5 9 1013.9 1013.0 0.0
16/05:00pm 36.4 34.0 11.3 22 15.0 NNE 15 26 8 14 1013.9 1013.0 0.0
16/04:30pm 36.8 35.4 10.9 21 15.4 NNE 9 17 5 9 1013.9 1013.0 0.0
16/04:00pm 36.5 34.8 11.3 22 15.1 NNW 11 19 6 10 1013.8 1012.9 0.0
16/03:30pm 36.8 35.2 11.6 22 15.1 NNE 11 22 6 12 1013.9 1013.0 0.0
16/03:00pm 36.6 34.8 12.1 23 14.8 ENE 13 24 7 13 1014.2 1013.3 0.0
16/02:30pm 36.2 34.1 11.1 22 14.9 N 13 22 7 12 1014.7 1013.8 0.0
16/02:00pm 36.4 34.9 11.9 23 14.8 NE 11 35 6 19 1015.2 1014.3 0.0
16/01:30pm 35.7 34.1 11.4 23 14.5 NNE 11 20 6 11 1015.6 1014.7 0.0
16/01:00pm 35.5 33.4 12.5 25 13.9 NNE 15 24 8 13 1016.0 1015.1 0.0
16/12:30pm 35.3 32.8 11.0 23 14.4 NNE 15 32 8 17 1016.6 1015.8 0.0
16/12:00pm 34.5 31.6 12.2 26 13.4 NNE 19 32 10 17 1017.2 1016.4 0.0
16/11:30am 34.2 31.2 12.5 27 13.1 NNE 20 30 11 16 1018.0 1017.1 0.0

Other Formats:

Comma delimited format used in spreadsheet applications
http://www.bom.gov.au/fwo/IDQ60801/IDQ60801.94344.axf

JavaScript Object Notation format (JSON) in row-major order
http://www.bom.gov.au/fwo/IDQ60801/IDQ60801.94344.json